Time;durP1;ratioP1;P1;durP2;ratioP2;P2;SDS_P1;SDS_P2;PMS_P1;PMS_P2;Temp;Humidity;BMP_temperature;BMP_pressure;BME280_temperature;BME280_humidity;BME280_pressure;Samples;Min_cycle;Max_cycle;Signal;HPM_P1;HPM_P2
2023/07/24 00:02:23;;;;;;;2.40;2.20;;;;;;;21.19;51.31;96468.72;4939494;28;20717;-82
2023/07/24 00:04:48;;;;;;;2.30;2.05;;;;;;;21.24;52.01;96479.09;4953248;28;20350;-82
2023/07/24 00:07:14;;;;;;;2.75;2.22;;;;;;;21.08;52.23;96462.34;4935990;28;20688;-82
2023/07/24 00:09:39;;;;;;;2.17;1.92;;;;;;;21.18;51.91;96474.34;4932243;28;20749;-82
2023/07/24 00:12:05;;;;;;;2.17;1.90;;;;;;;20.98;52.34;96458.22;4938431;28;20101;-82
2023/07/24 00:14:30;;;;;;;2.25;1.75;;;;;;;21.05;51.63;96469.03;4920612;28;20033;-82
2023/07/24 00:16:56;;;;;;;2.17;1.88;;;;;;;21.02;52.47;96469.69;4921307;28;20253;-82
2023/07/24 00:19:21;;;;;;;3.10;1.90;;;;;;;21.11;51.76;96478.31;4922394;28;20326;-82
2023/07/24 00:21:47;;;;;;;3.05;2.10;;;;;;;21.18;51.93;96477.00;4939051;28;21090;-82
2023/07/24 00:24:12;;;;;;;2.60;2.22;;;;;;;21.08;51.89;96457.81;4925014;28;20587;-83
2023/07/24 00:26:37;;;;;;;2.50;2.15;;;;;;;20.99;51.85;96438.63;4941277;28;20273;-84
2023/07/24 00:29:03;;;;;;;2.20;2.00;;;;;;;20.93;52.15;96445.22;4956117;28;20287;-83
2023/07/24 00:31:28;;;;;;;2.45;2.10;;;;;;;20.94;52.60;96449.41;4938723;28;20195;-82
2023/07/24 00:33:53;;;;;;;3.13;2.25;;;;;;;20.99;52.34;96469.59;4952799;28;20203;-82
2023/07/24 00:36:19;;;;;;;3.05;2.13;;;;;;;20.81;51.90;96445.97;4921683;28;20075;-82
2023/07/24 00:38:47;;;;;;;3.08;1.90;;;;;;;20.90;52.59;96462.50;4934881;28;20296;-84
2023/07/24 00:41:12;;;;;;;2.60;2.15;;;;;;;20.84;52.99;96463.84;4953766;28;20245;-82
2023/07/24 00:43:37;;;;;;;2.75;2.30;;;;;;;20.86;52.98;96466.94;4918622;28;20164;-84
2023/07/24 00:46:03;;;;;;;2.95;2.10;;;;;;;20.75;53.04;96450.72;4932224;28;20214;-84
2023/07/24 00:48:29;;;;;;;2.88;2.10;;;;;;;20.79;52.97;96463.28;4920759;28;20101;-82
2023/07/24 00:50:54;;;;;;;3.20;2.50;;;;;;;20.78;52.95;96457.19;4937836;28;20185;-82
2023/07/24 00:53:19;;;;;;;2.97;1.90;;;;;;;20.75;53.20;96455.22;4933907;28;20641;-82
2023/07/24 00:55:45;;;;;;;2.67;1.95;;;;;;;20.72;53.28;96454.00;4948056;28;20231;-81
2023/07/24 00:58:14;;;;;;;2.42;2.10;;;;;;;20.68;53.23;96453.13;4944959;28;20083;-81
2023/07/24 01:00:40;;;;;;;2.53;2.22;;;;;;;20.65;53.67;96445.84;4932822;28;20592;-80
2023/07/24 01:03:05;;;;;;;2.20;2.00;;;;;;;20.68;53.61;96452.34;4947345;22;20289;-79
2023/07/24 01:05:31;;;;;;;2.65;1.90;;;;;;;20.72;53.67;96456.66;4916528;28;20294;-79
2023/07/24 01:07:57;;;;;;;3.80;2.00;;;;;;;20.74;52.97;96457.09;4918179;28;20215;-79
2023/07/24 01:10:22;;;;;;;3.30;2.20;;;;;;;20.82;52.81;96460.75;4939802;28;20312;-79
2023/07/24 01:13:10;;;;;;;2.58;2.00;;;;;;;20.91;53.25;96450.06;4923253;28;20286;-79
2023/07/24 01:15:40;;;;;;;2.85;2.17;;;;;;;20.77;53.61;96419.41;4937665;28;20228;-79
2023/07/24 01:18:08;;;;;;;3.33;2.10;;;;;;;20.73;53.54;96368.25;4937582;28;20361;-78
2023/07/24 01:20:36;;;;;;;2.90;2.40;;;;;;;20.65;54.29;96328.66;4924348;28;20224;-79
2023/07/24 01:23:20;;;;;;;2.88;2.25;;;;;;;20.70;54.08;96349.59;4923874;28;20670;-79
2023/07/24 01:25:59;;;;;;;4.07;2.75;;;;;;;20.43;55.25;96364.22;4923699;28;20329;-79
2023/07/24 01:28:25;;;;;;;3.00;2.03;;;;;;;20.37;55.25;96369.72;4941069;28;20176;-79
2023/07/24 01:30:51;;;;;;;2.60;2.40;;;;;;;20.64;53.99;96386.09;4921898;28;20200;-79
2023/07/24 01:33:17;;;;;;;3.13;2.45;;;;;;;20.65;54.30;96408.81;4938483;28;20188;-79
2023/07/24 01:35:43;;;;;;;3.70;2.42;;;;;;;20.67;54.25;96403.19;4937899;28;20704;-79
2023/07/24 01:38:10;;;;;;;2.45;2.25;;;;;;;20.73;53.92;96389.44;4904843;28;20204;-79
2023/07/24 01:40:39;;;;;;;2.85;1.92;;;;;;;20.69;53.88;96396.47;4935714;28;20312;-79
2023/07/24 01:43:04;;;;;;;2.10;1.65;;;;;;;20.74;53.37;96412.13;4937655;28;20294;-79
2023/07/24 01:45:29;;;;;;;2.38;1.83;;;;;;;20.66;53.66;96433.38;4936261;28;20775;-78
2023/07/24 01:47:57;;;;;;;3.10;2.33;;;;;;;20.56;54.29;96432.69;4924868;28;20187;-78
2023/07/24 01:50:22;;;;;;;2.72;2.40;;;;;;;20.53;54.21;96427.28;4940316;28;20286;-79
2023/07/24 01:52:48;;;;;;;2.83;2.00;;;;;;;20.49;53.80;96429.00;4905923;28;20249;-79
2023/07/24 01:55:13;;;;;;;3.90;2.78;;;;;;;20.38;54.36;96424.13;4906028;28;20180;-79
2023/07/24 01:57:39;;;;;;;3.30;2.28;;;;;;;20.25;54.46;96414.63;4902990;28;20682;-79
2023/07/24 02:00:05;;;;;;;2.88;2.28;;;;;;;20.17;55.17;96415.50;4921836;28;20315;-79
2023/07/24 02:02:31;;;;;;;5.18;1.88;;;;;;;20.10;55.43;96399.34;4922706;28;20166;-79
2023/07/24 02:04:56;;;;;;;2.38;2.15;;;;;;;20.09;55.56;96403.13;4903971;28;20200;-79
2023/07/24 02:07:22;;;;;;;3.03;2.28;;;;;;;20.08;55.93;96404.19;4930370;28;20207;-78
2023/07/24 02:09:47;;;;;;;2.70;2.15;;;;;;;20.00;56.30;96390.00;4918287;28;20736;-79
2023/07/24 02:12:12;;;;;;;4.22;2.50;;;;;;;19.97;55.88;96385.34;4929845;28;20220;-79
2023/07/24 02:14:38;;;;;;;3.03;2.67;;;;;;;20.06;55.33;96390.53;4933109;28;20231;-79
2023/07/24 02:17:03;;;;;;;2.97;2.20;;;;;;;19.97;55.49;96386.09;4906618;28;20203;-79
2023/07/24 02:19:29;;;;;;;3.20;2.60;;;;;;;19.92;55.83;96369.69;4896014;28;20370;-78
2023/07/24 02:21:54;;;;;;;2.60;2.40;;;;;;;19.85;56.18;96370.22;4928007;28;20246;-79
2023/07/24 02:24:19;;;;;;;2.55;2.30;;;;;;;19.87;56.26;96375.19;4916923;28;20299;-79
2023/07/24 02:26:45;;;;;;;3.30;2.80;;;;;;;19.81;56.14;96374.59;4920467;28;20361;-79
2023/07/24 02:29:10;;;;;;;2.75;2.03;;;;;;;19.85;56.42;96378.13;4920431;28;20238;-79
2023/07/24 02:31:35;;;;;;;2.58;2.22;;;;;;;19.87;56.39;96369.88;4922784;28;20199;-79
2023/07/24 02:34:01;;;;;;;2.78;2.47;;;;;;;19.88;56.79;96363.50;4920660;28;20169;-78
2023/07/24 02:36:26;;;;;;;2.78;2.30;;;;;;;19.88;56.92;96364.28;4919906;28;20193;-79
2023/07/24 02:38:51;;;;;;;2.42;1.98;;;;;;;19.95;57.19;96367.16;4921595;28;20208;-79
2023/07/24 02:41:17;;;;;;;2.78;2.35;;;;;;;20.02;55.87;96375.34;4922963;28;20214;-79
2023/07/24 02:43:42;;;;;;;3.00;2.40;;;;;;;20.00;56.20;96369.59;4925636;28;20433;-79
2023/07/24 02:46:07;;;;;;;3.90;2.63;;;;;;;20.07;56.38;96369.09;4932761;28;20705;-78
2023/07/24 02:48:33;;;;;;;3.75;2.60;;;;;;;20.01;56.82;96362.44;4924015;28;20283;-79
2023/07/24 02:50:58;;;;;;;2.47;2.08;;;;;;;20.02;56.86;96351.56;4930332;28;20162;-79
2023/07/24 02:53:23;;;;;;;3.10;2.50;;;;;;;20.07;57.34;96342.66;4920688;28;20268;-79
2023/07/24 02:55:49;;;;;;;3.10;2.50;;;;;;;20.07;56.39;96336.59;4939918;28;20614;-78
2023/07/24 02:58:14;;;;;;;2.92;2.20;;;;;;;20.04;56.62;96326.69;4938573;28;20213;-79
2023/07/24 03:00:40;;;;;;;3.95;2.33;;;;;;;20.02;57.12;96316.44;4922004;28;20649;-79
2023/07/24 03:03:05;;;;;;;3.63;2.45;;;;;;;19.95;56.89;96311.69;4937572;28;20216;-79
2023/07/24 03:05:31;;;;;;;3.33;2.10;;;;;;;19.98;57.13;96307.59;4937409;28;20212;-79
2023/07/24 03:07:56;;;;;;;3.03;2.22;;;;;;;20.02;57.51;96311.91;4933681;28;20173;-79
2023/07/24 03:10:23;;;;;;;3.35;2.45;;;;;;;20.08;56.98;96309.06;4937167;28;20596;-79
2023/07/24 03:12:48;;;;;;;3.03;2.25;;;;;;;20.01;56.99;96291.91;4932409;28;20406;-78
2023/07/24 03:15:14;;;;;;;3.63;2.40;;;;;;;20.08;56.76;96280.00;4921354;28;20465;-79
2023/07/24 03:17:39;;;;;;;3.88;2.50;;;;;;;20.07;57.00;96273.19;4900795;28;20161;-79
2023/07/24 03:20:18;;;;;;;2.75;2.30;;;;;;;20.16;57.43;96276.50;4899185;28;20187;-78
2023/07/24 03:22:44;;;;;;;2.88;2.30;;;;;;;20.09;57.03;96284.19;4931638;28;20207;-79
2023/07/24 03:25:10;;;;;;;3.03;2.20;;;;;;;20.09;56.21;96287.59;4919881;28;20653;-78
2023/07/24 03:27:35;;;;;;;2.97;2.33;;;;;;;20.14;56.78;96283.97;4932352;28;20102;-78
2023/07/24 03:30:00;;;;;;;2.90;2.17;;;;;;;20.13;56.77;96275.25;4904824;28;20219;-79
2023/07/24 03:32:26;;;;;;;2.97;2.00;;;;;;;20.12;57.32;96267.69;4952454;28;20279;-78
2023/07/24 03:34:51;;;;;;;2.90;2.40;;;;;;;20.10;56.88;96259.28;4909070;28;20694;-79
2023/07/24 03:37:17;;;;;;;7.13;2.97;;;;;;;20.06;56.65;96266.34;4941636;28;20244;-80
2023/07/24 03:39:42;;;;;;;2.90;2.22;;;;;;;20.01;56.92;96268.13;4920773;28;20410;-80
2023/07/24 03:42:10;;;;;;;3.13;2.30;;;;;;;20.05;56.23;96265.59;4920624;28;20189;-80
2023/07/24 03:44:35;;;;;;;2.72;1.95;;;;;;;19.97;56.98;96269.84;4902547;28;20415;-79
2023/07/24 03:47:00;;;;;;;3.67;2.90;;;;;;;19.97;56.44;96282.28;4919989;28;20198;-80
2023/07/24 03:49:26;;;;;;;3.83;2.70;;;;;;;19.92;56.65;96293.84;4935408;28;20267;-79
2023/07/24 03:51:51;;;;;;;2.95;2.50;;;;;;;19.91;56.45;96300.22;4919730;28;20337;-80
2023/07/24 03:54:16;;;;;;;3.13;2.55;;;;;;;19.89;56.57;96299.75;4934194;28;20364;-79
2023/07/24 03:56:42;;;;;;;2.90;2.33;;;;;;;19.83;56.95;96295.81;4934936;28;20684;-80
2023/07/24 03:59:07;;;;;;;3.05;2.30;;;;;;;19.80;56.95;96291.16;4916778;28;20250;-80
2023/07/24 04:01:32;;;;;;;3.88;2.42;;;;;;;19.75;57.11;96294.00;4919740;28;20297;-79
2023/07/24 04:03:58;;;;;;;3.50;2.65;;;;;;;19.72;57.02;96299.91;4920186;28;20688;-80
2023/07/24 04:06:26;;;;;;;3.05;2.40;;;;;;;19.85;57.11;96296.25;4912825;28;20216;-80
2023/07/24 04:08:52;;;;;;;3.67;2.30;;;;;;;19.90;57.18;96301.31;4920918;28;20279;-80
2023/07/24 04:11:17;;;;;;;3.20;2.35;;;;;;;19.97;57.11;96300.78;4904799;28;20334;-80
2023/07/24 04:13:42;;;;;;;3.42;2.28;;;;;;;19.84;57.22;96292.03;4904895;28;20199;-80
2023/07/24 04:16:08;;;;;;;2.92;1.92;;;;;;;19.85;57.54;96288.31;4901301;28;20215;-79
2023/07/24 04:18:33;;;;;;;3.28;2.88;;;;;;;19.83;57.27;96293.16;4921745;28;20187;-80
2023/07/24 04:20:58;;;;;;;4.15;2.67;;;;;;;19.90;57.37;96293.41;4920953;28;20176;-80
2023/07/24 04:23:24;;;;;;;2.83;2.35;;;;;;;19.77;57.63;96294.44;4903528;28;20187;-81
2023/07/24 04:25:50;;;;;;;3.88;2.65;;;;;;;19.81;57.53;96290.84;4903644;28;20192;-80
2023/07/24 04:28:18;;;;;;;2.92;2.50;;;;;;;19.83;57.79;96291.28;4916791;28;20215;-80
2023/07/24 04:30:43;;;;;;;3.40;2.50;;;;;;;19.87;58.52;96299.31;4904051;28;20654;-80
2023/07/24 04:33:08;;;;;;;2.97;2.22;;;;;;;19.86;58.05;96292.50;4921167;28;20191;-79
2023/07/24 04:35:34;;;;;;;2.97;2.60;;;;;;;19.95;57.87;96310.91;4918688;28;20378;-80
2023/07/24 04:37:59;;;;;;;2.72;2.28;;;;;;;19.93;57.99;96319.16;4920257;28;20199;-80
2023/07/24 04:40:25;;;;;;;3.50;2.60;;;;;;;19.95;57.48;96303.75;4940295;28;20189;-80
2023/07/24 04:42:50;;;;;;;3.15;2.63;;;;;;;19.95;57.53;96295.84;4923055;28;20214;-79
2023/07/24 04:45:15;;;;;;;3.15;2.40;;;;;;;19.90;58.08;96305.84;4924481;28;20168;-80
2023/07/24 04:47:41;;;;;;;3.58;2.72;;;;;;;19.83;58.45;96286.00;4925562;28;20254;-80
2023/07/24 04:50:07;;;;;;;3.67;2.63;;;;;;;19.88;58.37;96292.16;4939629;28;20186;-80
2023/07/24 04:52:32;;;;;;;4.18;2.70;;;;;;;19.96;58.54;96288.66;4940798;28;20227;-81
2023/07/24 04:54:58;;;;;;;2.80;2.38;;;;;;;19.99;58.72;96280.09;4928688;28;20297;-80
2023/07/24 04:57:23;;;;;;;2.90;2.17;;;;;;;20.00;58.77;96284.28;4920808;28;20199;-80
2023/07/24 04:59:49;;;;;;;2.83;2.50;;;;;;;20.00;58.40;96285.06;4906312;28;20210;-80
2023/07/24 05:02:14;;;;;;;2.70;2.42;;;;;;;20.04;58.44;96281.75;4922256;28;20306;-79
2023/07/24 05:04:42;;;;;;;2.42;2.22;;;;;;;20.05;58.26;96278.00;4907173;28;20286;-80
2023/07/24 05:07:07;;;;;;;3.15;2.30;;;;;;;20.15;58.32;96288.16;4905721;28;20260;-80
2023/07/24 05:09:32;;;;;;;3.90;2.70;;;;;;;20.25;58.40;96290.38;4930981;28;20252;-80
2023/07/24 05:11:58;;;;;;;3.35;2.42;;;;;;;20.34;57.98;96295.56;4914775;28;20278;-80
2023/07/24 05:14:23;;;;;;;2.53;2.22;;;;;;;20.39;57.47;96304.06;4916537;28;20191;-80
2023/07/24 05:16:48;;;;;;;3.75;2.50;;;;;;;20.47;57.87;96296.34;4902855;28;20375;-80
2023/07/24 05:19:14;;;;;;;3.00;2.55;;;;;;;20.42;58.13;96288.63;4917828;28;20645;-80
2023/07/24 05:21:39;;;;;;;2.65;2.25;;;;;;;20.49;58.05;96288.84;4929106;28;20688;-80
2023/07/24 05:24:04;;;;;;;2.85;2.55;;;;;;;20.51;58.15;96287.44;4914077;28;20192;-80
2023/07/24 05:26:30;;;;;;;3.00;2.58;;;;;;;20.60;58.72;96289.97;4917823;28;20190;-80
2023/07/24 05:28:55;;;;;;;2.95;2.45;;;;;;;20.66;58.51;96291.31;4933686;28;20267;-80
2023/07/24 05:31:20;;;;;;;2.97;2.40;;;;;;;20.69;57.93;96295.94;4932815;28;20326;-80
2023/07/24 05:33:46;;;;;;;3.38;2.67;;;;;;;20.85;57.54;96295.25;4902068;28;20223;-80
2023/07/24 05:36:11;;;;;;;2.95;2.38;;;;;;;20.88;56.87;96294.59;4906406;28;20297;-80
2023/07/24 05:38:36;;;;;;;2.90;2.45;;;;;;;20.90;56.70;96287.88;4907712;28;20316;-80
2023/07/24 05:41:03;;;;;;;2.92;2.53;;;;;;;20.95;57.17;96294.81;4920822;28;20474;-80
2023/07/24 05:43:29;;;;;;;4.15;2.70;;;;;;;20.96;56.61;96296.38;4917904;28;20314;-81
2023/07/24 05:45:56;;;;;;;3.97;2.67;;;;;;;21.02;56.55;96292.38;4922417;28;20212;-80
2023/07/24 05:48:21;;;;;;;3.03;2.35;;;;;;;21.06;57.00;96290.63;4901306;28;20200;-80
2023/07/24 05:50:47;;;;;;;2.92;2.42;;;;;;;21.09;57.05;96291.81;4930787;28;20203;-80
2023/07/24 05:53:13;;;;;;;3.00;2.30;;;;;;;21.16;57.21;96288.59;4921366;28;20172;-80
2023/07/24 05:55:39;;;;;;;4.00;2.90;;;;;;;21.23;57.36;96294.09;4919565;28;20176;-80
2023/07/24 05:58:04;;;;;;;3.25;2.70;;;;;;;21.28;56.90;96299.16;4905126;28;20637;-79
2023/07/24 06:00:29;;;;;;;3.28;2.50;;;;;;;21.33;57.06;96301.56;4923550;28;20269;-80
2023/07/24 06:02:55;;;;;;;2.90;2.30;;;;;;;21.36;56.25;96290.31;4923141;28;20154;-81
2023/07/24 06:05:20;;;;;;;4.55;2.67;;;;;;;21.45;56.27;96282.97;4907317;28;20208;-80
2023/07/24 06:07:46;;;;;;;3.25;2.53;;;;;;;21.51;56.48;96289.63;4914008;28;20263;-80
2023/07/24 06:10:12;;;;;;;3.45;2.60;;;;;;;21.60;56.08;96286.06;4907980;28;20122;-80
2023/07/24 06:12:38;;;;;;;3.58;3.13;;;;;;;21.69;56.33;96286.69;4906827;28;20628;-81
2023/07/24 06:15:04;;;;;;;3.92;2.70;;;;;;;21.82;55.86;96282.88;4941068;28;20184;-81
2023/07/24 06:17:30;;;;;;;3.85;3.00;;;;;;;22.03;55.14;96281.88;4928150;28;20192;-80
2023/07/24 06:19:55;;;;;;;3.65;3.13;;;;;;;22.22;54.99;96279.31;4908657;28;20187;-80
2023/07/24 06:22:21;;;;;;;3.58;3.20;;;;;;;22.39;53.45;96277.47;4913086;28;20191;-80
2023/07/24 06:24:46;;;;;;;3.00;2.72;;;;;;;22.40;53.65;96282.44;4910346;28;20191;-80
2023/07/24 06:27:11;;;;;;;4.30;3.50;;;;;;;22.50;53.28;96289.09;4927935;28;20342;-80
2023/07/24 06:29:37;;;;;;;4.45;3.45;;;;;;;22.50;53.34;96291.75;4911891;28;20254;-80
2023/07/24 06:32:03;;;;;;;5.15;3.45;;;;;;;22.54;53.01;96297.16;4941513;28;20562;-80
2023/07/24 06:34:28;;;;;;;4.50;3.72;;;;;;;22.58;53.38;96301.41;4927903;28;20253;-80
2023/07/24 06:36:53;;;;;;;4.03;3.55;;;;;;;22.62;53.49;96304.16;4923440;28;20640;-80
2023/07/24 06:39:19;;;;;;;5.63;3.28;;;;;;;22.68;53.22;96313.38;4923840;28;20623;-80
2023/07/24 06:41:44;;;;;;;4.80;3.50;;;;;;;22.89;52.63;96312.34;4927167;28;20776;-79
2023/07/24 06:44:09;;;;;;;4.13;3.38;;;;;;;23.05;52.44;96312.28;4927164;28;20178;-80
2023/07/24 06:46:35;;;;;;;4.35;3.30;;;;;;;23.15;52.40;96319.75;4911559;28;20212;-79
2023/07/24 06:49:00;;;;;;;4.60;3.65;;;;;;;23.44;52.21;96317.69;4927245;28;21189;-81
2023/07/24 06:51:26;;;;;;;5.10;3.65;;;;;;;23.58;52.27;96303.91;4932914;28;20188;-80
2023/07/24 06:53:51;;;;;;;4.75;3.72;;;;;;;24.16;50.56;96290.53;4933904;28;20143;-81
2023/07/24 06:56:16;;;;;;;4.57;3.78;;;;;;;24.61;49.72;96290.94;4929968;28;20435;-81
2023/07/24 06:58:42;;;;;;;5.50;4.25;;;;;;;24.90;48.35;96308.06;4945163;28;20224;-81
2023/07/24 07:01:07;;;;;;;4.22;3.67;;;;;;;25.07;47.97;96298.81;4911707;28;20025;-81
2023/07/24 07:03:35;;;;;;;4.70;4.30;;;;;;;25.03;49.23;96306.72;4945249;28;20037;-80
2023/07/24 07:06:02;;;;;;;4.53;4.03;;;;;;;24.97;48.75;96300.19;4925194;28;20026;-81
2023/07/24 07:08:28;;;;;;;5.22;4.53;;;;;;;24.74;49.28;96299.47;4929637;28;20029;-80
2023/07/24 07:11:00;;;;;;;5.18;4.68;;;;;;;24.79;49.64;96305.25;4925621;28;20319;-80
2023/07/24 07:13:26;;;;;;;5.10;3.83;;;;;;;24.57;50.04;96304.16;4943491;28;20609;-80
2023/07/24 07:15:51;;;;;;;5.90;4.03;;;;;;;24.51;50.07;96305.56;4941522;28;20318;-80
2023/07/24 07:18:17;;;;;;;6.25;4.35;;;;;;;24.47;50.87;96312.72;4925545;28;20346;-80
2023/07/24 07:20:50;;;;;;;5.82;3.95;;;;;;;24.25;51.31;96317.69;4940028;28;20207;-80
2023/07/24 07:23:16;;;;;;;6.85;4.07;;;;;;;24.31;50.15;96324.25;4908610;28;20383;-80
2023/07/24 07:25:43;;;;;;;4.57;4.18;;;;;;;24.21;51.24;96322.16;4923057;28;20283;-80
2023/07/24 07:28:09;;;;;;;4.57;3.85;;;;;;;24.23;51.60;96329.78;4921933;28;20233;-79
2023/07/24 07:30:34;;;;;;;4.88;4.28;;;;;;;24.26;51.05;96321.13;4907341;28;20232;-80
2023/07/24 07:33:00;;;;;;;4.85;4.10;;;;;;;24.22;51.75;96328.28;4913743;28;20807;-80
2023/07/24 07:35:25;;;;;;;5.47;4.32;;;;;;;24.12;51.60;96322.41;4944231;28;20206;-80
2023/07/24 07:37:51;;;;;;;5.68;4.45;;;;;;;24.10;51.13;96316.69;4910411;28;20271;-81
2023/07/24 07:40:16;;;;;;;5.07;4.13;;;;;;;24.20;52.12;96314.56;4911717;28;20275;-79
2023/07/24 07:42:41;;;;;;;8.27;4.05;;;;;;;24.22;52.47;96309.66;4928026;28;20422;-80
2023/07/24 07:45:07;;;;;;;5.40;4.40;;;;;;;24.29;51.83;96309.78;4909202;28;20637;-80
2023/07/24 07:47:32;;;;;;;5.97;4.13;;;;;;;24.31;52.27;96297.63;4925870;28;20292;-81
2023/07/24 07:49:58;;;;;;;6.10;4.28;;;;;;;24.37;51.24;96303.44;4923159;28;20134;-80
2023/07/24 07:52:23;;;;;;;5.35;4.13;;;;;;;24.42;50.86;96311.13;4929158;28;20328;-80
2023/07/24 07:54:49;;;;;;;6.78;4.38;;;;;;;24.34;51.11;96290.84;4925573;28;20172;-81
2023/07/24 07:57:15;;;;;;;4.63;3.83;;;;;;;24.64;50.67;96292.84;4941637;28;20248;-81
2023/07/24 07:59:40;;;;;;;5.45;3.97;;;;;;;24.81;50.17;96283.59;4910536;28;20464;-81
2023/07/24 08:02:06;;;;;;;4.47;4.07;;;;;;;25.01;50.21;96286.91;4926986;28;20203;-79
2023/07/24 08:04:31;;;;;;;6.10;4.15;;;;;;;25.12;50.26;96290.50;4922574;28;20312;-79
2023/07/24 08:06:56;;;;;;;5.07;4.57;;;;;;;25.14;49.94;96293.56;4940830;28;20242;-79
2023/07/24 08:09:23;;;;;;;5.78;4.03;;;;;;;25.26;49.56;96291.81;4940994;28;20247;-79
2023/07/24 08:11:49;;;;;;;6.30;4.28;;;;;;;25.31;48.53;96294.16;4924069;28;20665;-79
2023/07/24 08:14:14;;;;;;;4.65;3.92;;;;;;;25.26;49.12;96305.13;4939602;28;20179;-79
2023/07/24 08:16:40;;;;;;;6.47;4.60;;;;;;;25.37;49.18;96303.38;4921544;28;20563;-80
2023/07/24 08:19:05;;;;;;;5.30;4.03;;;;;;;25.46;47.95;96316.44;4939985;28;20169;-79
2023/07/24 08:21:30;;;;;;;5.85;3.83;;;;;;;25.49;47.92;96318.38;4938354;28;20211;-79
2023/07/24 08:23:57;;;;;;;6.50;4.05;;;;;;;25.46;48.16;96316.44;4925452;28;20203;-79
2023/07/24 08:26:24;;;;;;;3.75;3.10;;;;;;;25.40;47.31;96305.31;4925049;28;20431;-80
2023/07/24 08:28:49;;;;;;;4.93;3.92;;;;;;;25.44;47.05;96298.13;4925223;28;20195;-79
2023/07/24 08:31:15;;;;;;;4.20;3.80;;;;;;;25.57;46.89;96290.69;4924893;28;20180;-79
2023/07/24 08:33:40;;;;;;;4.80;3.33;;;;;;;25.71;47.03;96282.06;4924714;28;20325;-79
2023/07/24 08:36:07;;;;;;;4.47;3.28;;;;;;;26.02;46.43;96266.75;4925347;28;20223;-79
2023/07/24 08:38:33;;;;;;;3.97;3.28;;;;;;;26.13;46.01;96260.38;4906533;28;20208;-79
2023/07/24 08:41:07;;;;;;;4.30;3.13;;;;;;;26.09;45.57;96266.81;4942611;28;20218;-80
2023/07/24 08:43:34;;;;;;;3.78;3.28;;;;;;;25.87;46.57;96261.25;4942584;28;20233;-79
2023/07/24 08:46:01;;;;;;;3.10;2.80;;;;;;;25.84;46.01;96238.00;4922933;28;20213;-79
2023/07/24 08:48:35;;;;;;;3.78;3.33;;;;;;;25.91;46.36;96248.75;4939502;28;20172;-79
2023/07/24 08:51:01;;;;;;;;;;;;;;;25.84;46.86;96240.69;4926265;28;20368;-79
2023/07/24 08:53:28;;;;;;;3.60;3.05;;;;;;;25.59;46.95;96233.19;4925730;28;20064;-79
2023/07/24 08:55:54;;;;;;;4.07;3.15;;;;;;;25.80;46.21;96237.19;4925246;28;20367;-80
2023/07/24 08:58:20;;;;;;;3.03;2.78;;;;;;;25.98;46.69;96240.81;4938534;28;20757;-79
2023/07/24 09:00:45;;;;;;;5.95;3.28;;;;;;;26.02;46.89;96240.84;4924412;28;20192;-79
2023/07/24 09:03:10;;;;;;;3.35;2.75;;;;;;;26.19;45.78;96236.03;4939171;28;20245;-80
2023/07/24 09:05:36;;;;;;;4.32;3.10;;;;;;;26.37;44.88;96228.16;4936992;28;20197;-79
2023/07/24 09:08:01;;;;;;;4.13;2.92;;;;;;;26.46;43.99;96228.59;4940049;28;20235;-80
2023/07/24 09:10:26;;;;;;;5.00;3.00;;;;;;;26.18;44.89;96216.56;4936779;28;20207;-80
2023/07/24 09:12:55;;;;;;;4.85;2.60;;;;;;;26.25;44.80;96213.97;4919577;28;20311;-80
2023/07/24 09:15:21;;;;;;;3.47;2.78;;;;;;;26.09;44.47;96192.88;4924090;28;20521;-80
2023/07/24 09:17:53;;;;;;;3.30;2.90;;;;;;;26.46;44.20;96205.34;4915448;28;20672;-79
2023/07/24 09:20:19;;;;;;;3.42;2.92;;;;;;;26.48;44.92;96192.38;4937596;28;20261;-79
2023/07/24 09:22:52;;;;;;;3.28;2.90;;;;;;;27.12;43.32;96193.09;4923384;28;20267;-79
2023/07/24 09:25:17;;;;;;;3.92;3.08;;;;;;;27.42;42.84;96171.44;4937715;28;20539;-80
2023/07/24 09:27:43;;;;;;;5.82;3.17;;;;;;;27.48;42.61;96161.13;4935191;28;20196;-79
2023/07/24 09:30:14;;;;;;;3.80;3.00;;;;;;;27.51;43.08;96173.75;4934900;28;20692;-79
2023/07/24 09:32:40;;;;;;;3.33;3.05;;;;;;;27.70;41.74;96207.38;4923690;28;20720;-81
2023/07/24 09:35:16;;;;;;;4.35;2.90;;;;;;;27.43;42.02;96221.09;4907174;28;20220;-79
2023/07/24 09:37:42;;;;;;;3.30;3.00;;;;;;;26.82;43.37;96210.13;4921633;28;20363;-79
2023/07/24 09:40:09;;;;;;;4.95;3.42;;;;;;;26.71;43.33;96226.09;4908669;28;20254;-80
2023/07/24 09:42:35;;;;;;;3.65;2.85;;;;;;;26.50;44.17;96218.72;4922370;28;20169;-79
2023/07/24 09:45:05;;;;;;;5.63;2.83;;;;;;;26.38;44.44;96219.78;4922883;28;20198;-80
2023/07/24 09:47:31;;;;;;;4.07;3.25;;;;;;;26.41;44.84;96218.25;4934504;28;20180;-79
2023/07/24 09:49:57;;;;;;;3.88;3.10;;;;;;;26.32;44.98;96219.38;4906851;28;20648;-80
2023/07/24 09:52:24;;;;;;;3.72;2.97;;;;;;;26.30;45.42;96228.88;4921402;28;20188;-80
2023/07/24 09:55:00;;;;;;;3.00;2.75;;;;;;;25.83;45.95;96222.38;4939038;28;20261;-79
2023/07/24 09:57:26;;;;;;;4.25;3.33;;;;;;;26.03;45.55;96228.28;4904647;28;20172;-79
2023/07/24 09:59:53;;;;;;;3.78;2.80;;;;;;;26.07;46.30;96237.09;4935468;28;20365;-79
2023/07/24 10:02:19;;;;;;;3.33;2.70;;;;;;;26.02;45.22;96242.75;4924067;28;20375;-80
2023/07/24 10:04:45;;;;;;;5.10;3.40;;;;;;;26.10;45.74;96231.03;4906672;28;20161;-80
2023/07/24 10:07:10;;;;;;;3.38;2.83;;;;;;;26.27;44.87;96233.06;4938179;28;20224;-79
2023/07/24 10:09:37;;;;;;;3.17;2.78;;;;;;;26.17;45.95;96239.84;4937821;28;20255;-80
2023/07/24 10:12:02;;;;;;;4.05;3.03;;;;;;;26.29;45.56;96238.78;4906529;28;20374;-79
2023/07/24 10:14:29;;;;;;;4.28;3.53;;;;;;;26.07;44.64;96232.50;4923943;28;20706;-79
2023/07/24 10:16:56;;;;;;;4.10;3.22;;;;;;;25.90;45.97;96239.19;4919298;28;20295;-79
2023/07/24 10:19:21;;;;;;;4.13;3.58;;;;;;;26.01;45.47;96235.88;4929834;28;20191;-79
2023/07/24 10:21:48;;;;;;;4.10;3.20;;;;;;;26.12;45.44;96239.41;4932029;28;20204;-79
2023/07/24 10:24:15;;;;;;;3.38;3.08;;;;;;;26.26;45.42;96228.84;4895389;28;20624;-79
2023/07/24 10:26:40;;;;;;;3.72;3.35;;;;;;;26.42;44.62;96230.47;4897585;28;20192;-79
2023/07/24 10:29:06;;;;;;;3.50;3.08;;;;;;;26.42;45.67;96225.13;4925862;28;20208;-79
2023/07/24 10:31:31;;;;;;;3.35;3.05;;;;;;;26.40;45.24;96222.06;4922519;28;20172;-79
2023/07/24 10:34:06;;;;;;;4.57;3.20;;;;;;;26.49;45.90;96222.50;4939031;28;20164;-79
2023/07/24 10:36:36;;;;;;;3.50;3.20;;;;;;;26.52;46.22;96214.53;4939282;28;20277;-79
2023/07/24 10:39:02;;;;;;;3.75;3.38;;;;;;;26.40;45.00;96211.41;4924018;28;20243;-79
2023/07/24 10:41:35;;;;;;;3.60;3.17;;;;;;;26.30;46.52;96218.19;4925832;28;20200;-79
2023/07/24 10:44:00;;;;;;;4.90;3.75;;;;;;;26.22;46.06;96227.28;4904892;28;20733;-79
2023/07/24 10:46:36;;;;;;;5.60;3.65;;;;;;;26.41;45.85;96232.38;4925336;28;20327;-79
2023/07/24 10:49:02;;;;;;;4.88;3.92;;;;;;;26.17;46.10;96231.06;4939314;28;20235;-80
2023/07/24 10:51:29;;;;;;;6.93;3.60;;;;;;;26.31;46.42;96235.75;4924410;28;20776;-79
2023/07/24 10:53:54;;;;;;;3.63;3.33;;;;;;;26.23;46.66;96234.91;4906229;28;20217;-80
2023/07/24 10:56:19;;;;;;;5.18;3.50;;;;;;;26.13;46.67;96246.25;4938820;28;20657;-80
2023/07/24 10:58:45;;;;;;;3.55;3.22;;;;;;;26.19;46.47;96247.47;4921608;28;20271;-79
2023/07/24 11:01:10;;;;;;;6.03;3.60;;;;;;;26.24;46.65;96247.13;4922459;28;20169;-79
2023/07/24 11:03:37;;;;;;;4.28;3.55;;;;;;;26.25;46.42;96243.34;4924543;28;20153;-79
2023/07/24 11:06:03;;;;;;;4.13;2.97;;;;;;;26.30;47.11;96243.00;4937727;28;20250;-80
2023/07/24 11:08:28;;;;;;;4.72;3.80;;;;;;;26.05;49.08;96223.34;4937081;28;20281;-79
2023/07/24 11:10:56;;;;;;;4.32;4.00;;;;;;;26.21;48.92;96215.09;4943390;28;20246;-79
2023/07/24 11:13:27;;;;;;;6.57;4.35;;;;;;;26.22;51.24;96214.72;4910689;28;20289;-79
2023/07/24 11:15:53;;;;;;;5.10;3.97;;;;;;;26.18;52.88;96216.56;4937385;28;20268;-79
2023/07/24 11:18:21;;;;;;;4.93;4.30;;;;;;;26.50;50.69;96200.03;4935363;28;20638;-79
2023/07/24 11:20:51;;;;;;;4.85;4.35;;;;;;;26.83;49.35;96190.31;4939709;28;20785;-79
2023/07/24 11:23:17;;;;;;;4.55;4.03;;;;;;;26.87;49.22;96180.38;4925235;28;20357;-79
2023/07/24 11:25:43;;;;;;;4.50;3.95;;;;;;;26.99;49.25;96189.97;4932974;28;20289;-79
2023/07/24 11:28:10;;;;;;;5.28;4.45;;;;;;;27.24;48.42;96196.19;4925716;28;20108;-79
2023/07/24 11:30:37;;;;;;;5.28;4.43;;;;;;;27.42;47.53;96182.13;4931329;28;20698;-79